Main page
METAR-TAF:

METAR-TAF

Airports :

Burgos Airport

Burgos, Spain

latitude: 42-22N, longitude: 003-38W, elevation: 894 m

Current weather observation

The report was made 25 minutes ago, at 23:00 UTC
Wind 8 kt from the Northeast
Temperature 4°C
Humidity 87%
Pressure 1016 hPa
Visibility 10 km or more
no clouds below 1500 m and no cumulonimbus

METAR: LEBG 242300Z AUTO 05008KT CAVOK 04/02 Q1016

Time: 01:25 (23:25 UTC)

Forecast

The report was made 3 hours and 25 minutes ago, at 20:00 UTC
Forecast valid from 24 at 21 UTC to 25 at 21 UTC
Wind 7 kt from the Northeast
Visibility 10 km or more
no clouds below 1500 m and no cumulonimbus
Probability 30% :
Temporary
from 25 at 05 UTC to 25 at 08 UTC
Visibility: 3000 m
Broken clouds at a height of 500 ft
mist
Probability 40% :
Temporary
from 25 at 13 UTC to 25 at 21 UTC
Visibility: 4000 m
Broken clouds at a height of 1400 ft
rain,

TAF: LEBG 242000Z 2421/2521 04007KT CAVOK TX13/2515Z TN01/2504Z PROB30 TEMPO 2505/2508 3000 BR BKN005 PROB40 TEMPO 2513/2521 4000 RA BKN014

Weather observations and forecasts of more than 4000 airports (METAR and TAF reports).

The available stations are represented by yellow and red dots on the map.

Hover mouse over dot to see the name of the station.

Then click to see weather observations and forecasts.

To change the map : click on the green buttons with a black cross to zoom in, on the green button with a dash to zoom out, or on the green arrows for adjacent maps.


METAR-TAF: